Airfield :
LOGIN :

Register | Disclaimer

   EN    FR    IT 

 










Legend :    VFR   Marginal VFR   IFR   Intensive IFR   Very Intensive IFR
Visi :
Ceiling :
>= 8 km
>= 3000ft
5 to 8 km
1000 to 3000 ft
1500m to 5 km
500 to 1000 ft
800 to 1500m
200 to 500 ft
< 800m
< 200 ft
Symbols :   Thunderstorms  Fog  Heavy snow  Heavy precipitations  Wind > 20 kt
SIGMETs :     Misc.  Thunderstorms  Icing  Turbulence  Mountain Waves  Volcanic Ashes






- Airport Elevation : 463 ft
- IATA code : QAS


DAOI - Chlef Int.

CURRENT METAR :
  • 200000Z 25004KT 9999 SCT023 BKN026 09/09 Q1013

EXPIRED METARs :
  • 192300Z 25007KT 220V280 9999 SCT023 BKN026 09/09 Q1013
  • 192200Z 25007KT 9999 SCT023 BKN026 10/09 Q1013

TAF TAF DAOI
Valid from the 20 at 00:00 until the 21 at 00:00 UTC


192300Z 2000/2024 VRB02KT 9999 SCT023 BKN026
PROB40
TEMPO 2002/2008 4000 -RA BR BKN013
BECMG 2009/2012 05010KT
PROB40
TEMPO 2013/2020 04015G25KT -TSRA FEW026CB



MET'MAP, your aeronautical weather chart ! - Copyright ORBIFLY December 2007 - Disclaimer

ORBIFLY MET'MAP TEAM :

Programming & Development : Alexandra Zaïnal
Concept & original design : Baudouin d'Aumeries
Assistance for programming : Marc-Olivier Méhu
Technical & hardware support : Manuel Goepfert

Contact : metmap@orbifly.com




SOURCES & CREDITS :

   NOAA